createdAt,value
2023-04-04T00:00:39.975Z,102424.09
2023-04-04T00:03:07.093Z,102429.13
2023-04-04T00:05:35.668Z,102429.03
2023-04-04T00:08:03.687Z,102427.94
2023-04-04T00:10:30.361Z,102425.38
2023-04-04T00:12:57.056Z,102419.78
2023-04-04T00:15:23.654Z,102418.09
2023-04-04T00:17:50.551Z,102413.41
2023-04-04T00:20:17.285Z,102409.84
2023-04-04T00:22:43.934Z,102412.25
2023-04-04T00:25:10.949Z,102401.22
2023-04-04T00:27:37.577Z,102404.09
2023-04-04T00:30:04.619Z,102400.31
2023-04-04T00:32:31.351Z,102400.13
2023-04-04T00:34:58.141Z,102400.13
2023-04-04T00:37:24.801Z,102396.84
2023-04-04T00:39:51.614Z,102392.97
2023-04-04T00:42:18.672Z,102392.00
2023-04-04T00:44:45.468Z,102392.97
2023-04-04T00:47:12.142Z,102392.53
2023-04-04T00:49:38.837Z,102397.53
2023-04-04T00:52:07.587Z,102387.81
2023-04-04T00:54:34.989Z,102379.66
2023-04-04T00:57:02.118Z,102383.31
2023-04-04T00:59:29.217Z,102374.34
2023-04-04T01:01:55.992Z,102377.25
2023-04-04T01:04:22.764Z,102383.31
2023-04-04T01:06:50.958Z,102382.19
2023-04-04T01:09:17.730Z,102381.38
2023-04-04T01:11:44.526Z,102377.75
2023-04-04T01:14:11.407Z,102374.75
2023-04-04T01:16:38.617Z,102374.66
2023-04-04T01:19:08.958Z,102369.69
2023-04-04T01:21:36.278Z,102372.19
2023-04-04T01:24:04.532Z,102366.63
2023-04-04T01:26:31.402Z,102372.94
2023-04-04T01:28:58.840Z,102370.84
2023-04-04T01:31:32.077Z,102365.63
2023-04-04T01:34:10.803Z,102371.38
2023-04-04T01:36:47.418Z,102371.19
2023-04-04T01:39:19.968Z,102366.50
2023-04-04T01:41:48.303Z,102367.06
2023-04-04T01:44:17.373Z,102371.13
2023-04-04T01:46:43.989Z,102375.00
2023-04-04T01:49:11.336Z,102367.63
2023-04-04T01:51:38.907Z,102364.25
2023-04-04T01:54:05.577Z,102375.13
2023-04-04T01:56:32.913Z,102366.13
2023-04-04T01:58:59.588Z,102363.19
2023-04-04T02:01:26.272Z,102363.19
2023-04-04T02:07:22.860Z,102354.16
2023-04-04T02:09:54.626Z,102358.41
2023-04-04T02:12:22.419Z,102356.34
2023-04-04T02:14:49.545Z,102355.94
2023-04-04T02:17:16.134Z,102356.16
2023-04-04T02:19:42.710Z,102363.28
2023-04-04T02:22:09.294Z,102357.09
2023-04-04T02:24:35.910Z,102366.91
2023-04-04T02:27:02.557Z,102365.69
2023-04-04T02:29:29.163Z,102353.69
2023-04-04T02:31:55.973Z,102351.78
2023-04-04T02:34:22.543Z,102353.94
2023-04-04T02:36:49.139Z,102346.81
2023-04-04T02:39:15.909Z,102345.66
2023-04-04T02:41:42.832Z,102346.47
2023-04-04T02:44:10.211Z,102346.03
2023-04-04T02:46:36.945Z,102340.09
2023-04-04T02:49:04.164Z,102335.63
2023-04-04T02:51:31.170Z,102335.16
2023-04-04T02:53:57.805Z,102337.63
2023-04-04T02:56:24.404Z,102329.91
2023-04-04T02:58:51.026Z,102335.09
2023-04-04T03:01:17.839Z,102331.16
2023-04-04T03:03:44.601Z,102330.47
2023-04-04T03:06:11.483Z,102323.88
2023-04-04T03:08:38.690Z,102318.84
2023-04-04T03:11:05.656Z,102325.91
2023-04-04T03:13:32.344Z,102316.59
2023-04-04T03:16:04.530Z,102315.63
2023-04-04T03:18:31.584Z,102311.72
2023-04-04T03:20:58.497Z,102313.63
2023-04-04T03:23:25.330Z,102315.97
2023-04-04T03:25:52.136Z,102308.72
2023-04-04T03:28:20.030Z,102303.69
2023-04-04T03:30:47.496Z,102306.59
2023-04-04T03:33:14.097Z,102299.47
2023-04-04T03:35:41.255Z,102295.63
2023-04-04T03:38:09.412Z,102301.00
2023-04-04T03:40:36.589Z,102296.41
2023-04-04T03:43:03.298Z,102295.66
2023-04-04T03:45:30.325Z,102297.00
2023-04-04T03:47:56.981Z,102285.66
2023-04-04T03:50:23.745Z,102291.50
2023-04-04T03:52:50.718Z,102293.19
2023-04-04T03:55:17.541Z,102289.50
2023-04-04T03:57:44.257Z,102294.75
2023-04-04T04:00:12.235Z,102287.59
2023-04-04T04:02:39.265Z,102291.06
2023-04-04T04:05:06.217Z,102290.94
2023-04-04T04:07:32.952Z,102297.47
2023-04-04T04:09:59.603Z,102287.84
2023-04-04T04:12:28.727Z,102287.72
2023-04-04T04:14:55.611Z,102292.44
2023-04-04T04:17:22.415Z,102294.63
2023-04-04T04:19:49.441Z,102290.47
2023-04-04T04:22:16.281Z,102295.94
2023-04-04T04:24:51.458Z,102287.91
2023-04-04T04:27:19.323Z,102289.81
2023-04-04T04:29:46.293Z,102287.22
2023-04-04T04:32:17.050Z,102289.22
2023-04-04T04:34:43.822Z,102289.78
2023-04-04T04:37:10.538Z,102288.34
2023-04-04T04:39:37.303Z,102286.34
2023-04-04T04:42:03.963Z,102290.59
2023-04-04T04:44:30.657Z,102287.03
2023-04-04T04:46:57.460Z,102282.09
2023-04-04T04:49:24.203Z,102276.06
2023-04-04T04:51:51.703Z,102282.97
2023-04-04T04:54:18.380Z,102284.47
2023-04-04T04:56:45.497Z,102284.47
2023-04-04T04:59:12.903Z,102289.81
2023-04-04T05:01:39.626Z,102290.81
2023-04-04T05:04:06.312Z,102282.53
2023-04-04T05:06:32.910Z,102282.84
2023-04-04T05:08:59.575Z,102277.78
2023-04-04T05:11:26.256Z,102286.72
2023-04-04T05:13:52.873Z,102282.69
2023-04-04T05:16:20.551Z,102278.56
2023-04-04T05:18:50.375Z,102279.22
2023-04-04T05:21:17.475Z,102284.38
2023-04-04T05:23:45.271Z,102280.00
2023-04-04T05:26:11.945Z,102288.03
2023-04-04T05:28:38.532Z,102288.91
2023-04-04T05:31:05.178Z,102289.84
2023-04-04T05:33:31.868Z,102293.19
2023-04-04T05:36:02.002Z,102292.81
2023-04-04T05:38:29.474Z,102294.84
2023-04-04T05:40:56.317Z,102298.66
2023-04-04T05:43:23.064Z,102295.72
2023-04-04T05:45:49.673Z,102303.56
2023-04-04T05:48:16.381Z,102303.19
2023-04-04T05:50:46.027Z,102300.50
2023-04-04T05:53:12.644Z,102304.97
2023-04-04T05:55:39.311Z,102301.88
2023-04-04T05:58:05.919Z,102296.72
2023-04-04T06:00:33.247Z,102297.78
2023-04-04T06:03:00.222Z,102297.47
2023-04-04T06:05:27.041Z,102297.91
2023-04-04T06:07:53.717Z,102296.25
2023-04-04T06:10:20.411Z,102295.31
2023-04-04T06:12:47.048Z,102300.47
2023-04-04T06:15:13.755Z,102306.16
2023-04-04T06:17:40.670Z,102301.28
2023-04-04T06:20:08.366Z,102303.00
2023-04-04T06:22:35.075Z,102304.88
2023-04-04T06:25:01.744Z,102296.06
2023-04-04T06:27:28.431Z,102298.09
2023-04-04T06:29:55.024Z,102286.16
2023-04-04T06:32:22.536Z,102292.88
2023-04-04T06:34:49.279Z,102278.03
2023-04-04T06:37:16.577Z,102278.09
2023-04-04T06:39:43.565Z,102271.38
2023-04-04T06:42:10.248Z,102272.34
2023-04-04T06:44:36.864Z,102252.72
2023-04-04T06:47:03.566Z,102260.28
2023-04-04T06:49:30.256Z,102265.19
2023-04-04T06:51:57.008Z,102264.03
2023-04-04T06:54:23.770Z,102253.56
2023-04-04T06:56:50.661Z,102252.88
2023-04-04T06:59:17.360Z,102252.03
2023-04-04T07:01:44.277Z,102253.94
2023-04-04T07:04:11.247Z,102261.69
2023-04-04T07:06:37.891Z,102250.13
2023-04-04T07:09:22.011Z,102260.78
2023-04-04T07:11:55.487Z,102251.22
2023-04-04T07:14:25.294Z,102245.09
2023-04-04T07:16:52.665Z,102251.19
2023-04-04T07:19:19.394Z,102245.19
2023-04-04T07:21:46.049Z,102250.56
2023-04-04T07:24:12.742Z,102249.03
2023-04-04T07:26:40.899Z,102248.38
2023-04-04T07:29:08.011Z,102242.97
2023-04-04T07:31:34.812Z,102245.47
2023-04-04T07:34:02.099Z,102249.63
2023-04-04T07:36:28.749Z,102242.91
2023-04-04T07:38:55.511Z,102244.06
2023-04-04T07:41:22.640Z,102248.75
2023-04-04T07:43:49.671Z,102240.00
2023-04-04T07:46:17.127Z,102250.09
2023-04-04T07:48:44.262Z,102237.81
2023-04-04T07:51:10.897Z,102233.09
2023-04-04T07:53:37.599Z,102234.81
2023-04-04T07:56:06.557Z,102231.47
2023-04-04T07:58:34.176Z,102230.47
2023-04-04T08:01:01.612Z,102236.75
2023-04-04T08:03:28.581Z,102231.19
2023-04-04T08:05:55.597Z,102240.38
2023-04-04T08:08:22.712Z,102237.03
2023-04-04T08:10:49.367Z,102232.72
2023-04-04T08:13:16.017Z,102235.25
2023-04-04T08:15:42.736Z,102234.00
2023-04-04T08:18:09.441Z,102235.03
2023-04-04T08:20:36.341Z,102231.81
2023-04-04T08:23:03.174Z,102225.88
2023-04-04T08:25:30.520Z,102233.94
2023-04-04T08:27:57.146Z,102233.53
2023-04-04T08:30:23.862Z,102225.25
2023-04-04T08:32:51.299Z,102231.41
2023-04-04T08:35:22.883Z,102224.13
2023-04-04T08:37:49.997Z,102229.63
2023-04-04T08:40:17.091Z,102223.53
2023-04-04T08:42:46.018Z,102218.22
2023-04-04T08:45:12.945Z,102216.66
2023-04-04T08:47:39.947Z,102216.06
2023-04-04T08:50:07.836Z,102217.97
2023-04-04T08:52:38.143Z,102210.00
2023-04-04T08:55:05.625Z,102210.63
2023-04-04T08:57:33.453Z,102225.34
2023-04-04T09:00:00.618Z,102207.50
2023-04-04T09:02:35.404Z,102207.44
2023-04-04T09:05:06.814Z,102204.88
2023-04-04T09:07:37.195Z,102199.69
2023-04-04T09:10:05.150Z,102198.31
2023-04-04T09:12:32.603Z,102193.56
2023-04-04T09:15:00.818Z,102201.31
2023-04-04T09:17:27.584Z,102206.66
2023-04-04T09:19:54.718Z,102197.69
2023-04-04T09:22:22.418Z,102183.41
2023-04-04T09:24:50.615Z,102186.34
2023-04-04T09:27:17.414Z,102186.31
2023-04-04T09:29:44.052Z,102184.75
2023-04-04T09:32:14.375Z,102178.03
2023-04-04T09:34:41.981Z,102186.22
2023-04-04T09:37:08.632Z,102183.38
2023-04-04T09:39:39.028Z,102172.50
2023-04-04T09:42:07.561Z,102170.81
2023-04-04T09:44:34.334Z,102177.41
2023-04-04T09:50:01.391Z,102166.81
2023-04-04T09:52:33.058Z,102154.09
2023-04-04T09:55:00.854Z,102159.28
2023-04-04T09:57:35.967Z,102165.56
2023-04-04T10:00:09.546Z,102171.72
2023-04-04T10:02:47.993Z,102166.84
2023-04-04T10:05:14.887Z,102158.50
2023-04-04T10:07:44.810Z,102157.47
2023-04-04T10:10:11.702Z,102150.72
2023-04-04T10:12:39.005Z,102154.66
2023-04-04T10:15:06.552Z,102142.78
2023-04-04T10:17:38.323Z,102134.69
2023-04-04T10:20:15.153Z,102148.34
2023-04-04T10:22:43.642Z,102136.16
2023-04-04T10:25:11.563Z,102132.94
2023-04-04T10:27:38.838Z,102137.78
2023-04-04T10:30:07.817Z,102123.59
2023-04-04T10:33:00.671Z,102116.16
2023-04-04T10:35:28.457Z,102118.31
2023-04-04T10:37:59.344Z,102114.16
2023-04-04T10:40:31.449Z,102122.66
2023-04-04T10:42:59.855Z,102127.09
2023-04-04T10:45:27.347Z,102110.41
2023-04-04T10:47:54.364Z,102110.84
2023-04-04T10:50:21.384Z,102118.19
2023-04-04T10:52:48.301Z,102114.88
2023-04-04T10:55:16.014Z,102112.72
2023-04-04T10:57:44.842Z,102112.06
2023-04-04T11:00:18.011Z,102100.66
2023-04-04T11:02:58.221Z,102079.75
2023-04-04T11:05:40.821Z,102082.66
2023-04-04T11:08:10.677Z,102084.09
2023-04-04T11:10:39.897Z,102081.72
2023-04-04T11:13:23.681Z,102084.75
2023-04-04T11:15:56.777Z,102089.38
2023-04-04T11:18:34.272Z,102090.72
2023-04-04T11:21:05.677Z,102090.94
2023-04-04T11:23:47.582Z,102085.69
2023-04-04T11:26:17.757Z,102074.91
2023-04-04T11:28:46.423Z,102078.72
2023-04-04T11:31:19.894Z,102064.25
2023-04-04T11:34:07.995Z,102060.25
2023-04-04T11:36:41.505Z,102050.88
2023-04-04T11:39:10.974Z,102045.84
2023-04-04T11:41:54.602Z,102039.22
2023-04-04T11:44:24.682Z,102047.94
2023-04-04T11:47:02.661Z,102045.88
2023-04-04T11:49:31.499Z,102033.03
2023-04-04T11:51:58.800Z,102047.44
2023-04-04T11:54:27.422Z,102048.31
2023-04-04T11:56:54.928Z,102044.78
2023-04-04T11:59:22.748Z,102042.88
2023-04-04T12:01:52.524Z,102045.97
2023-04-04T12:04:20.410Z,102027.09
2023-04-04T12:06:51.562Z,102036.28
2023-04-04T12:09:19.383Z,102030.94
2023-04-04T12:11:47.580Z,102028.19
2023-04-04T12:14:20.968Z,102026.34
2023-04-04T12:16:48.986Z,102031.22
2023-04-04T12:19:17.088Z,102022.47
2023-04-04T12:21:44.624Z,102027.28
2023-04-04T12:24:11.845Z,102018.66
2023-04-04T12:26:40.942Z,102011.91
2023-04-04T12:29:12.935Z,102029.84
2023-04-04T12:31:41.698Z,102017.53
2023-04-04T12:34:16.554Z,102008.63
2023-04-04T12:36:43.285Z,102022.56
2023-04-04T12:39:14.372Z,102008.00
2023-04-04T12:41:49.577Z,102009.50
2023-04-04T12:44:33.460Z,102008.84
2023-04-04T12:47:02.156Z,102002.63
2023-04-04T12:49:34.619Z,101996.59
2023-04-04T12:52:05.404Z,101994.31
2023-04-04T12:54:36.036Z,101997.28
2023-04-04T12:57:08.138Z,101987.66
2023-04-04T13:00:00.097Z,101991.03
2023-04-04T13:02:26.850Z,101989.06
2023-04-04T13:04:57.330Z,101991.44
2023-04-04T13:07:29.222Z,101974.53
2023-04-04T13:10:04.531Z,101966.16
2023-04-04T13:12:58.377Z,101969.13
2023-04-04T13:15:48.469Z,101970.78
2023-04-04T13:18:23.680Z,101956.91
2023-04-04T13:20:52.791Z,101964.47
2023-04-04T13:23:20.598Z,101955.72
2023-04-04T13:25:47.492Z,101943.09
2023-04-04T13:28:14.487Z,101952.66
2023-04-04T13:30:46.824Z,101949.63
2023-04-04T13:33:13.836Z,101950.94
2023-04-04T13:35:43.661Z,101947.75
2023-04-04T13:38:11.376Z,101939.16
2023-04-04T13:40:38.378Z,101938.44
2023-04-04T13:43:05.288Z,101931.38
2023-04-04T13:45:35.879Z,101937.09
2023-04-04T13:48:02.962Z,101933.44
2023-04-04T13:50:31.924Z,101925.75
2023-04-04T13:52:59.108Z,101931.53
2023-04-04T13:55:26.202Z,101937.69
2023-04-04T13:57:53.043Z,101929.75
2023-04-04T14:00:19.922Z,101929.50
2023-04-04T14:02:49.025Z,101925.13
2023-04-04T14:05:16.053Z,101921.75
2023-04-04T14:07:42.748Z,101921.78
2023-04-04T14:10:11.554Z,101908.66
2023-04-04T14:12:38.634Z,101920.38
2023-04-04T14:15:07.359Z,101909.53
2023-04-04T14:17:34.067Z,101907.25
2023-04-04T14:20:00.818Z,101905.63
2023-04-04T14:22:27.542Z,101907.44
2023-04-04T14:24:54.139Z,101898.72
2023-04-04T14:27:20.766Z,101899.09
2023-04-04T14:29:47.399Z,101902.53
2023-04-04T14:32:14.196Z,101909.66
2023-04-04T14:34:40.945Z,101911.84
2023-04-04T14:37:08.178Z,101906.47
2023-04-04T14:39:34.855Z,101914.44
2023-04-04T14:42:01.804Z,101904.88
2023-04-04T14:44:28.414Z,101913.22
2023-04-04T14:46:55.121Z,101912.59
2023-04-04T14:49:21.740Z,101901.59
2023-04-04T14:51:48.356Z,101912.91
2023-04-04T14:54:14.939Z,101906.88
2023-04-04T14:56:43.065Z,101905.44
2023-04-04T14:59:09.817Z,101895.25
2023-04-04T15:01:36.693Z,101897.28
2023-04-04T15:04:03.798Z,101889.38
2023-04-04T15:06:36.165Z,101885.44
2023-04-04T15:09:06.730Z,101884.69
2023-04-04T15:11:35.394Z,101874.16
2023-04-04T15:14:02.320Z,101877.75
2023-04-04T15:16:33.293Z,101874.16
2023-04-04T15:19:00.688Z,101878.16
2023-04-04T15:21:28.374Z,101876.25
2023-04-04T15:23:55.257Z,101874.16
2023-04-04T15:26:22.923Z,101869.09
2023-04-04T15:28:49.836Z,101861.13
2023-04-04T15:31:17.219Z,101868.75
2023-04-04T15:33:43.911Z,101873.00
2023-04-04T15:36:10.715Z,101865.38
2023-04-04T15:38:37.357Z,101867.31
2023-04-04T15:41:10.351Z,101864.53
2023-04-04T15:43:36.969Z,101868.13
2023-04-04T15:46:03.696Z,101858.75
2023-04-04T15:48:30.390Z,101863.19
2023-04-04T15:51:02.362Z,101846.88
2023-04-04T15:53:30.454Z,101845.25
2023-04-04T15:55:57.593Z,101831.22
2023-04-04T15:58:25.133Z,101839.16
2023-04-04T16:00:52.417Z,101837.25
2023-04-04T16:03:19.261Z,101836.25
2023-04-04T16:05:46.778Z,101835.41
2023-04-04T16:08:13.891Z,101839.22
2023-04-04T16:10:41.270Z,101829.81
2023-04-04T16:13:08.197Z,101836.06
2023-04-04T16:15:34.838Z,101835.97
2023-04-04T16:18:03.219Z,101834.97
2023-04-04T16:20:30.245Z,101834.19
2023-04-04T16:22:56.914Z,101827.84
2023-04-04T16:25:24.609Z,101826.97
2023-04-04T16:27:51.263Z,101821.75
2023-04-04T16:30:17.885Z,101826.75
2023-04-04T16:32:47.066Z,101828.34
2023-04-04T16:35:13.900Z,101829.97
2023-04-04T16:37:40.851Z,101831.22
2023-04-04T16:40:08.344Z,101835.56
2023-04-04T16:42:35.084Z,101830.47
2023-04-04T16:45:01.867Z,101835.13
2023-04-04T16:47:28.571Z,101830.00
2023-04-04T16:49:55.300Z,101832.25
2023-04-04T16:52:22.015Z,101829.91
2023-04-04T16:54:53.049Z,101830.44
2023-04-04T16:57:19.802Z,101816.28
2023-04-04T16:59:46.424Z,101821.38
2023-04-04T17:02:14.529Z,101820.59
2023-04-04T17:04:43.673Z,101817.84
2023-04-04T17:07:10.405Z,101823.72
2023-04-04T17:09:37.311Z,101819.75
2023-04-04T17:12:04.220Z,101821.19
2023-04-04T17:14:30.964Z,101819.31
2023-04-04T17:17:00.507Z,101824.00
2023-04-04T17:19:31.721Z,101818.69
2023-04-04T17:21:58.906Z,101824.59
2023-04-04T17:24:27.078Z,101819.31
2023-04-04T17:26:54.451Z,101828.00
2023-04-04T17:29:26.435Z,101825.84
2023-04-04T17:31:56.896Z,101821.03
2023-04-04T17:34:24.316Z,101833.06
2023-04-04T17:36:51.953Z,101818.91
2023-04-04T17:39:19.112Z,101834.25
2023-04-04T17:41:49.465Z,101829.25
2023-04-04T17:44:17.126Z,101832.56
2023-04-04T17:46:45.115Z,101845.31
2023-04-04T17:49:12.515Z,101838.94
2023-04-04T17:51:39.226Z,101850.00
2023-04-04T17:54:06.867Z,101845.91
2023-04-04T17:56:33.628Z,101845.06
2023-04-04T17:59:00.844Z,101856.72
2023-04-04T18:01:29.494Z,101852.19
2023-04-04T18:03:59.086Z,101853.69
2023-04-04T18:06:27.212Z,101852.63
2023-04-04T18:08:54.842Z,101860.13
2023-04-04T18:11:22.090Z,101857.41
2023-04-04T18:13:48.957Z,101857.78
2023-04-04T18:16:15.690Z,101859.22
2023-04-04T18:18:42.649Z,101866.75
2023-04-04T18:21:09.424Z,101867.03
2023-04-04T18:23:36.448Z,101860.72
2023-04-04T18:26:03.425Z,101866.44
2023-04-04T18:28:30.170Z,101869.75
2023-04-04T18:30:57.996Z,101876.31
2023-04-04T18:33:25.145Z,101873.50
2023-04-04T18:35:51.856Z,101871.41
2023-04-04T18:38:19.030Z,101869.34
2023-04-04T18:40:46.539Z,101868.38
2023-04-04T18:43:13.463Z,101869.69
2023-04-04T18:45:41.442Z,101870.91
2023-04-04T18:48:08.876Z,101872.03
2023-04-04T18:50:35.806Z,101869.31
2023-04-04T18:53:03.398Z,101877.59
2023-04-04T18:55:30.112Z,101873.03
2023-04-04T18:57:57.591Z,101878.75
2023-04-04T19:00:24.589Z,101874.34
2023-04-04T19:02:51.406Z,101881.88
2023-04-04T19:05:25.724Z,101884.31
2023-04-04T19:07:53.458Z,101880.47
2023-04-04T19:10:20.813Z,101881.66
2023-04-04T19:12:47.557Z,101886.69
2023-04-04T19:15:14.354Z,101880.09
2023-04-04T19:17:41.304Z,101882.63
2023-04-04T19:20:08.510Z,101876.91
2023-04-04T19:22:35.542Z,101878.06
2023-04-04T19:25:02.269Z,101875.53
2023-04-04T19:27:28.926Z,101878.78
2023-04-04T19:29:55.721Z,101875.19
2023-04-04T19:32:24.912Z,101873.94
2023-04-04T19:34:52.013Z,101871.50
2023-04-04T19:37:19.188Z,101873.03
2023-04-04T19:39:46.096Z,101878.78
2023-04-04T19:42:12.710Z,101875.09
2023-04-04T19:44:42.734Z,101880.13
2023-04-04T19:47:10.412Z,101875.63
2023-04-04T19:49:38.167Z,101877.69
2023-04-04T19:52:05.817Z,101879.19
2023-04-04T19:54:38.989Z,101874.47
2023-04-04T19:57:16.501Z,101872.31
2023-04-04T19:59:56.004Z,101879.22
2023-04-04T20:02:34.999Z,101875.94
2023-04-04T20:05:02.301Z,101871.09
2023-04-04T20:07:29.020Z,101877.44
2023-04-04T20:09:55.916Z,101879.13
2023-04-04T20:12:26.493Z,101873.25
2023-04-04T20:14:55.476Z,101880.53
2023-04-04T20:17:22.140Z,101875.59
2023-04-04T20:19:48.802Z,101881.28
2023-04-04T20:22:16.946Z,101871.38
2023-04-04T20:24:46.661Z,101873.78
2023-04-04T20:27:23.588Z,101871.38
2023-04-04T20:29:52.827Z,101870.13
2023-04-04T20:32:19.551Z,101874.72
2023-04-04T20:34:50.492Z,101872.72
2023-04-04T20:37:23.030Z,101876.72
2023-04-04T20:39:53.303Z,101875.31
2023-04-04T20:42:26.053Z,101882.31
2023-04-04T20:44:53.840Z,101879.53
2023-04-04T20:47:34.500Z,101877.81
2023-04-04T20:50:01.292Z,101880.41
2023-04-04T20:52:27.908Z,101886.50
2023-04-04T20:54:54.518Z,101879.47
2023-04-04T20:57:24.669Z,101878.59
2023-04-04T20:59:51.475Z,101878.91
2023-04-04T21:02:20.916Z,101882.66
2023-04-04T21:04:51.958Z,101879.53
2023-04-04T21:07:37.439Z,101879.03
2023-04-04T21:10:20.365Z,101890.03
2023-04-04T21:12:46.972Z,101885.84
2023-04-04T21:15:22.305Z,101884.53
2023-04-04T21:17:50.380Z,101876.19
2023-04-04T21:20:55.281Z,101877.69
2023-04-04T21:23:24.979Z,101879.09
2023-04-04T21:26:02.703Z,101873.75
2023-04-04T21:28:42.167Z,101883.38
2023-04-04T21:31:14.916Z,101871.25
2023-04-04T21:33:46.536Z,101868.06
2023-04-04T21:36:23.544Z,101865.47
2023-04-04T21:38:52.289Z,101861.47
2023-04-04T21:41:26.192Z,101866.13
2023-04-04T21:43:53.834Z,101859.00
2023-04-04T21:46:25.321Z,101857.63
2023-04-04T21:48:52.500Z,101858.38
2023-04-04T21:51:19.649Z,101854.91
2023-04-04T21:53:48.140Z,101853.25
2023-04-04T21:56:17.858Z,101854.38
2023-04-04T21:58:44.924Z,101849.97
2023-04-04T22:01:11.593Z,101850.09
2023-04-04T22:03:38.587Z,101848.44
2023-04-04T22:06:05.607Z,101853.84
2023-04-04T22:08:33.330Z,101850.97
2023-04-04T22:11:02.272Z,101841.06
2023-04-04T22:13:42.873Z,101849.09
2023-04-04T22:16:15.961Z,101841.84
2023-04-04T22:18:46.884Z,101835.13
2023-04-04T22:21:16.938Z,101841.88
2023-04-04T22:23:44.663Z,101847.13
2023-04-04T22:26:32.978Z,101839.19
2023-04-04T22:29:04.608Z,101838.03
2023-04-04T22:31:34.385Z,101844.91
2023-04-04T22:34:04.415Z,101834.63
2023-04-04T22:36:33.901Z,101834.69
2023-04-04T22:39:00.491Z,101836.59
2023-04-04T22:41:30.041Z,101834.38
2023-04-04T22:43:57.554Z,101839.28
2023-04-04T22:46:25.974Z,101840.09
2023-04-04T22:49:04.601Z,101831.72
2023-04-04T22:51:35.119Z,101825.34
2023-04-04T22:54:02.767Z,101830.38
2023-04-04T22:56:29.412Z,101832.75
2023-04-04T22:58:56.115Z,101827.88
2023-04-04T23:01:22.815Z,101826.59
2023-04-04T23:03:49.742Z,101826.81
2023-04-04T23:06:16.747Z,101823.25
2023-04-04T23:08:46.816Z,101821.47
2023-04-04T23:11:13.434Z,101822.38
2023-04-04T23:13:42.339Z,101823.44
2023-04-04T23:16:11.538Z,101824.06
2023-04-04T23:18:41.257Z,101818.88
2023-04-04T23:21:07.853Z,101814.69
2023-04-04T23:23:34.649Z,101817.34
2023-04-04T23:26:01.574Z,101813.13
2023-04-04T23:28:29.430Z,101805.78
2023-04-04T23:30:56.197Z,101800.69
2023-04-04T23:33:22.821Z,101806.81
2023-04-04T23:35:49.612Z,101791.56
2023-04-04T23:38:16.993Z,101796.66
2023-04-04T23:40:43.616Z,101791.13
2023-04-04T23:43:10.807Z,101799.97
2023-04-04T23:45:40.013Z,101788.22
2023-04-04T23:48:06.866Z,101787.78
2023-04-04T23:50:33.547Z,101784.88
2023-04-04T23:53:00.340Z,101787.63
2023-04-04T23:55:27.379Z,101785.75
2023-04-04T23:57:56.219Z,101784.88
